createdAt,value
2022-09-03T00:02:38.863Z,12.60
2022-09-03T00:05:23.894Z,12.50
2022-09-03T00:08:03.888Z,12.50
2022-09-03T00:10:44.725Z,12.50
2022-09-03T00:13:22.169Z,12.50
2022-09-03T00:15:51.362Z,12.40
2022-09-03T00:18:22.905Z,12.40
2022-09-03T00:20:58.709Z,12.40
2022-09-03T00:23:30.351Z,12.30
2022-09-03T00:26:15.036Z,12.30
2022-09-03T00:28:51.408Z,12.30
2022-09-03T00:31:47.617Z,12.30
2022-09-03T00:34:31.424Z,12.20
2022-09-03T00:36:58.472Z,12.20
2022-09-03T00:39:27.786Z,12.20
2022-09-03T00:42:09.982Z,12.20
2022-09-03T00:44:55.158Z,12.20
2022-09-03T00:47:48.007Z,12.20
2022-09-03T00:50:29.513Z,12.20
2022-09-03T00:53:13.560Z,12.20
2022-09-03T00:56:09.629Z,12.20
2022-09-03T00:59:15.203Z,12.20
2022-09-03T01:02:06.152Z,12.20
2022-09-03T01:04:55.975Z,12.10
2022-09-03T01:07:55.213Z,12.10
2022-09-03T01:10:32.337Z,12.20
2022-09-03T01:13:17.474Z,12.20
2022-09-03T01:16:21.782Z,12.20
2022-09-03T01:18:48.757Z,12.10
2022-09-03T01:21:41.722Z,12.20
2022-09-03T01:24:14.254Z,12.20
2022-09-03T01:27:11.031Z,12.30
2022-09-03T01:30:05.334Z,12.20
2022-09-03T01:33:14.123Z,12.20
2022-09-03T01:35:53.083Z,12.20
2022-09-03T01:38:38.755Z,12.20
2022-09-03T01:41:38.777Z,12.20
2022-09-03T01:44:19.595Z,12.20
2022-09-03T01:46:50.831Z,12.10
2022-09-03T01:49:38.071Z,12.10
2022-09-03T01:52:26.185Z,12.10
2022-09-03T01:55:18.914Z,12.10
2022-09-03T01:58:10.022Z,12.00
2022-09-03T02:00:41.583Z,12.00
2022-09-03T02:03:11.138Z,12.00
2022-09-03T02:05:39.169Z,11.90
2022-09-03T02:08:08.803Z,11.90
2022-09-03T02:10:50.969Z,11.90
2022-09-03T02:13:23.772Z,11.90
2022-09-03T02:15:53.245Z,11.90
2022-09-03T02:18:25.425Z,11.80
2022-09-03T02:20:54.609Z,11.80
2022-09-03T02:23:27.729Z,11.90
2022-09-03T02:25:58.670Z,11.90
2022-09-03T02:28:26.940Z,11.90
2022-09-03T02:30:54.484Z,11.90
2022-09-03T02:33:21.565Z,12.00
2022-09-03T02:35:48.953Z,12.00
2022-09-03T02:38:18.652Z,12.00
2022-09-03T02:40:45.896Z,12.10
2022-09-03T02:43:20.329Z,12.10
2022-09-03T02:45:55.630Z,12.10
2022-09-03T02:48:24.873Z,12.10
2022-09-03T02:50:51.975Z,12.10
2022-09-03T02:53:19.008Z,12.10
2022-09-03T02:55:46.690Z,12.10
2022-09-03T02:58:13.879Z,12.10
2022-09-03T03:00:40.863Z,12.20
2022-09-03T03:03:08.097Z,12.10
2022-09-03T03:05:48.248Z,12.00
2022-09-03T03:08:17.066Z,12.00
2022-09-03T03:10:47.251Z,12.00
2022-09-03T03:13:14.293Z,12.00
2022-09-03T03:15:41.617Z,12.00
2022-09-03T03:18:11.934Z,12.00
2022-09-03T03:20:39.028Z,12.00
2022-09-03T03:23:06.413Z,12.00
2022-09-03T03:25:35.063Z,11.90
2022-09-03T03:28:02.222Z,11.90
2022-09-03T03:30:29.212Z,11.90
2022-09-03T03:32:56.374Z,12.10
2022-09-03T03:35:23.573Z,12.10
2022-09-03T03:37:50.626Z,12.10
2022-09-03T03:40:17.977Z,12.10
2022-09-03T03:42:44.736Z,12.10
2022-09-03T03:45:11.544Z,12.10
2022-09-03T03:47:38.568Z,12.10
2022-09-03T03:50:05.937Z,12.10
2022-09-03T03:52:32.768Z,12.10
2022-09-03T03:54:59.492Z,12.10
2022-09-03T03:57:26.733Z,12.10
2022-09-03T03:59:53.471Z,12.10
2022-09-03T04:02:20.363Z,12.10
2022-09-03T04:04:47.600Z,12.10
2022-09-03T04:07:14.373Z,12.00
2022-09-03T04:09:41.171Z,12.00
2022-09-03T04:12:08.691Z,12.00
2022-09-03T04:14:35.848Z,12.00
2022-09-03T04:17:03.181Z,12.00
2022-09-03T04:19:30.366Z,12.00
2022-09-03T04:21:57.537Z,11.90
2022-09-03T04:24:24.311Z,11.90
2022-09-03T04:26:51.745Z,11.80
2022-09-03T04:29:18.516Z,11.80
2022-09-03T04:32:05.247Z,11.80
2022-09-03T04:34:32.405Z,11.80
2022-09-03T04:36:59.190Z,11.70
2022-09-03T04:39:26.308Z,11.80
2022-09-03T04:41:53.339Z,11.80
2022-09-03T04:44:20.075Z,11.80
2022-09-03T04:46:48.226Z,11.80
2022-09-03T04:49:15.166Z,11.80
2022-09-03T04:51:42.269Z,11.80
2022-09-03T04:54:10.289Z,11.80
2022-09-03T04:56:39.198Z,11.80
2022-09-03T04:59:08.600Z,11.90
2022-09-03T05:01:38.156Z,11.90
2022-09-03T05:04:06.128Z,11.90
2022-09-03T05:06:34.192Z,12.00
2022-09-03T05:09:01.096Z,12.00
2022-09-03T05:11:29.394Z,12.10
2022-09-03T05:13:58.272Z,12.10
2022-09-03T05:16:26.306Z,12.20
2022-09-03T05:18:54.566Z,12.30
2022-09-03T05:21:22.556Z,12.40
2022-09-03T05:23:50.825Z,12.40
2022-09-03T05:26:20.478Z,12.40
2022-09-03T05:28:47.974Z,12.40
2022-09-03T05:31:16.717Z,12.40
2022-09-03T05:33:54.960Z,12.50
2022-09-03T05:36:23.983Z,12.50
2022-09-03T05:38:51.449Z,12.50
2022-09-03T05:41:19.132Z,12.50
2022-09-03T05:43:59.527Z,12.60
2022-09-03T05:46:32.650Z,12.60
2022-09-03T05:49:07.402Z,12.70
2022-09-03T05:51:36.049Z,12.70
2022-09-03T05:54:03.875Z,12.70
2022-09-03T05:56:32.631Z,12.70
2022-09-03T05:59:02.057Z,12.70
2022-09-03T06:01:35.077Z,12.80
2022-09-03T06:04:07.601Z,12.90
2022-09-03T06:06:38.223Z,13.00
2022-09-03T06:09:10.844Z,13.10
2022-09-03T06:11:40.323Z,13.20
2022-09-03T06:14:09.058Z,13.20
2022-09-03T06:16:39.434Z,13.20
2022-09-03T06:19:09.731Z,13.20
2022-09-03T06:21:44.820Z,13.30
2022-09-03T06:24:14.827Z,13.30
2022-09-03T06:26:43.059Z,13.30
2022-09-03T06:29:10.656Z,13.40
2022-09-03T06:31:37.825Z,13.40
2022-09-03T06:34:04.710Z,13.50
2022-09-03T06:36:31.870Z,13.50
2022-09-03T06:38:58.674Z,13.50
2022-09-03T06:41:32.363Z,13.40
2022-09-03T06:44:04.123Z,13.30
2022-09-03T06:46:33.385Z,13.30
2022-09-03T06:49:00.514Z,13.40
2022-09-03T06:51:29.502Z,13.50
2022-09-03T06:54:05.737Z,13.50
2022-09-03T06:56:38.829Z,13.50
2022-09-03T06:59:12.175Z,13.60
2022-09-03T07:01:45.322Z,13.80
2022-09-03T07:04:16.118Z,13.80
2022-09-03T07:06:43.416Z,13.90
2022-09-03T07:09:11.782Z,13.90
2022-09-03T07:11:46.575Z,13.80
2022-09-03T07:14:14.216Z,13.90
2022-09-03T07:16:42.657Z,13.90
2022-09-03T07:19:09.754Z,14.00
2022-09-03T07:21:37.664Z,13.90
2022-09-03T07:24:06.189Z,14.00
2022-09-03T07:26:44.591Z,14.00
2022-09-03T07:29:12.231Z,14.00
2022-09-03T07:31:41.246Z,14.40
2022-09-03T07:34:10.544Z,14.60
2022-09-03T07:36:43.056Z,14.50
2022-09-03T07:39:11.616Z,14.70
2022-09-03T07:41:39.002Z,15.10
2022-09-03T07:44:05.940Z,15.20
2022-09-03T07:46:35.033Z,15.40
2022-09-03T07:49:05.339Z,15.60
2022-09-03T07:51:34.403Z,16.00
2022-09-03T07:54:02.735Z,16.40
2022-09-03T07:56:32.539Z,16.60
2022-09-03T07:58:59.619Z,16.80
2022-09-03T08:01:34.084Z,17.00
2022-09-03T08:04:02.695Z,17.30
2022-09-03T08:06:31.210Z,17.30
2022-09-03T08:09:04.940Z,17.10
2022-09-03T08:11:35.133Z,17.10
2022-09-03T08:14:06.550Z,17.20
2022-09-03T08:16:39.700Z,17.20
2022-09-03T08:19:07.660Z,17.40
2022-09-03T08:21:35.118Z,17.30
2022-09-03T08:24:05.757Z,17.60
2022-09-03T08:26:38.868Z,17.60
2022-09-03T08:29:06.464Z,17.80
2022-09-03T08:31:34.235Z,17.70
2022-09-03T08:34:06.752Z,18.00
2022-09-03T08:36:38.780Z,18.50
2022-09-03T08:39:11.086Z,18.80
2022-09-03T08:41:46.924Z,19.10
2022-09-03T08:44:35.162Z,19.50
2022-09-03T08:47:09.673Z,19.50
2022-09-03T08:49:39.343Z,19.70
2022-09-03T08:52:14.628Z,19.80
2022-09-03T08:54:41.780Z,19.90
2022-09-03T08:57:10.291Z,19.80
2022-09-03T08:59:37.298Z,19.80
2022-09-03T09:02:39.767Z,19.90
2022-09-03T09:05:30.740Z,20.30
2022-09-03T09:08:15.476Z,20.10
2022-09-03T09:10:49.158Z,19.80
2022-09-03T09:13:39.877Z,19.80
2022-09-03T09:16:27.480Z,19.60
2022-09-03T09:19:24.960Z,19.40
2022-09-03T09:22:05.745Z,19.40
2022-09-03T09:24:50.137Z,19.40
2022-09-03T09:27:17.463Z,19.30
2022-09-03T09:29:48.350Z,19.20
2022-09-03T09:32:17.731Z,19.20
2022-09-03T09:34:51.317Z,19.00
2022-09-03T09:37:19.129Z,19.10
2022-09-03T09:39:58.469Z,19.30
2022-09-03T09:42:26.404Z,19.00
2022-09-03T09:44:53.581Z,19.00
2022-09-03T09:47:27.659Z,19.00
2022-09-03T09:50:03.469Z,19.10
2022-09-03T09:52:31.638Z,19.30
2022-09-03T09:55:10.744Z,19.60
2022-09-03T09:57:38.798Z,19.60
2022-09-03T10:00:12.936Z,19.80
2022-09-03T10:02:47.216Z,19.80
2022-09-03T10:05:27.712Z,20.10
2022-09-03T10:08:00.275Z,20.50
2022-09-03T10:10:29.182Z,20.80
2022-09-03T10:13:15.313Z,21.10
2022-09-03T10:15:56.954Z,21.60
2022-09-03T10:18:36.140Z,22.00
2022-09-03T10:21:12.644Z,22.30
2022-09-03T10:23:52.396Z,21.60
2022-09-03T10:26:32.373Z,21.80
2022-09-03T10:29:05.731Z,22.10
2022-09-03T10:32:03.320Z,22.40
2022-09-03T10:35:02.352Z,23.00
2022-09-03T10:37:34.896Z,22.80
2022-09-03T10:40:15.682Z,23.30
2022-09-03T10:42:53.594Z,24.10
2022-09-03T10:45:49.778Z,24.10
2022-09-03T10:48:49.860Z,23.90
2022-09-03T10:51:21.313Z,23.90
2022-09-03T10:53:59.470Z,24.40
2022-09-03T10:57:01.652Z,25.00
2022-09-03T10:59:55.681Z,25.20
2022-09-03T11:02:38.824Z,25.20
2022-09-03T11:05:15.859Z,25.30
2022-09-03T11:08:17.320Z,25.20
2022-09-03T11:10:50.108Z,25.40
2022-09-03T11:13:35.717Z,26.20
2022-09-03T11:16:12.505Z,25.20
2022-09-03T11:18:48.714Z,25.30
2022-09-03T11:21:20.676Z,25.10
2022-09-03T11:23:55.197Z,25.50
2022-09-03T11:26:26.333Z,25.50
2022-09-03T11:29:06.704Z,24.80
2022-09-03T11:32:03.574Z,24.70
2022-09-03T11:34:46.423Z,24.60
2022-09-03T11:37:17.445Z,24.90
2022-09-03T11:39:45.729Z,24.70
2022-09-03T11:42:27.571Z,24.50
2022-09-03T11:45:19.076Z,24.40
2022-09-03T11:47:47.048Z,24.40
2022-09-03T11:50:21.831Z,24.50
2022-09-03T11:52:52.083Z,24.40
2022-09-03T11:55:37.580Z,24.30
2022-09-03T11:58:22.605Z,24.30
2022-09-03T12:00:50.574Z,23.90
2022-09-03T12:03:17.939Z,23.70
2022-09-03T12:06:09.148Z,23.70
2022-09-03T12:08:35.828Z,24.00
2022-09-03T12:11:18.076Z,23.60
2022-09-03T12:14:06.400Z,23.20
2022-09-03T12:16:51.108Z,23.00
2022-09-03T12:19:42.036Z,22.80
2022-09-03T12:22:15.080Z,22.80
2022-09-03T12:24:44.453Z,22.60
2022-09-03T12:27:17.688Z,22.40
2022-09-03T12:30:00.188Z,22.30
2022-09-03T12:32:37.294Z,22.20
2022-09-03T12:35:58.199Z,22.10
2022-09-03T12:38:04.914Z,22.00
2022-09-03T12:40:33.037Z,21.90
2022-09-03T12:46:13.295Z,21.60
2022-09-03T12:48:46.953Z,21.30
2022-09-03T12:54:02.683Z,21.00
2022-09-03T12:56:33.267Z,19.50
2022-09-03T12:59:06.798Z,18.20
2022-09-03T13:01:39.155Z,16.30
2022-09-03T13:04:12.363Z,15.60
2022-09-03T13:06:57.165Z,15.40
2022-09-03T13:09:26.896Z,15.20
2022-09-03T13:11:55.464Z,15.30
2022-09-03T13:14:22.817Z,15.30
2022-09-03T13:17:00.360Z,15.40
2022-09-03T13:19:27.172Z,15.40
2022-09-03T13:22:38.338Z,15.40
2022-09-03T13:25:27.011Z,15.30
2022-09-03T13:28:16.032Z,15.20
2022-09-03T13:31:10.618Z,15.30
2022-09-03T13:33:45.557Z,15.40
2022-09-03T13:36:45.708Z,15.60
2022-09-03T13:39:28.197Z,15.50
2022-09-03T13:42:06.096Z,15.50
2022-09-03T13:44:39.532Z,15.60
2022-09-03T13:47:18.388Z,15.80
2022-09-03T13:50:15.469Z,15.90
2022-09-03T13:53:07.222Z,15.90
2022-09-03T13:55:42.007Z,16.10
2022-09-03T13:58:45.252Z,16.40
2022-09-03T14:01:15.963Z,16.60
2022-09-03T14:03:49.413Z,16.70
2022-09-03T14:06:36.337Z,16.80
2022-09-03T14:09:18.706Z,16.70
2022-09-03T14:11:54.472Z,17.00
2022-09-03T14:14:37.274Z,17.20
2022-09-03T14:17:12.713Z,17.20
2022-09-03T14:19:57.921Z,17.40
2022-09-03T14:23:02.860Z,17.10
2022-09-03T14:25:30.165Z,17.20
2022-09-03T14:28:26.372Z,17.00
2022-09-03T14:31:12.049Z,16.90
2022-09-03T14:33:44.806Z,17.10
2022-09-03T14:36:23.013Z,16.90
2022-09-03T14:39:20.929Z,16.80
2022-09-03T14:42:26.696Z,17.00
2022-09-03T14:45:24.458Z,17.10
2022-09-03T14:48:12.521Z,17.20
2022-09-03T14:51:19.801Z,17.30
2022-09-03T14:54:30.865Z,17.50
2022-09-03T14:57:13.200Z,17.40
2022-09-03T15:00:08.729Z,17.30
2022-09-03T15:02:58.912Z,17.20
2022-09-03T15:05:52.917Z,17.20
2022-09-03T15:08:49.401Z,17.30
2022-09-03T15:11:22.143Z,17.40
2022-09-03T15:14:09.116Z,17.50
2022-09-03T15:17:01.548Z,17.60
2022-09-03T15:19:40.225Z,17.70
2022-09-03T15:22:58.556Z,18.10
2022-09-03T15:26:06.091Z,18.10
2022-09-03T15:28:41.772Z,18.40
2022-09-03T15:31:40.334Z,18.50
2022-09-03T15:34:35.881Z,18.30
2022-09-03T15:37:12.044Z,18.40
2022-09-03T15:39:44.404Z,18.50
2022-09-03T15:42:23.030Z,18.40
2022-09-03T15:44:54.920Z,18.40
2022-09-03T15:47:51.598Z,18.40
2022-09-03T15:50:48.438Z,18.30
2022-09-03T15:53:34.212Z,18.10
2022-09-03T15:56:12.975Z,18.00
2022-09-03T15:58:51.751Z,17.80
2022-09-03T16:01:37.160Z,17.70
2022-09-03T16:04:16.160Z,17.80
2022-09-03T16:07:20.459Z,17.70
2022-09-03T16:10:28.239Z,17.70
2022-09-03T16:13:46.267Z,17.70
2022-09-03T16:16:36.789Z,17.70
2022-09-03T16:19:17.382Z,17.70
2022-09-03T16:22:02.233Z,17.70
2022-09-03T16:24:44.012Z,17.70
2022-09-03T16:27:39.795Z,17.50
2022-09-03T16:30:12.592Z,17.50
2022-09-03T16:32:51.833Z,17.40
2022-09-03T16:35:26.619Z,17.50
2022-09-03T16:38:17.836Z,17.50
2022-09-03T16:41:04.873Z,17.30
2022-09-03T16:44:02.537Z,17.30
2022-09-03T16:46:35.802Z,17.20
2022-09-03T16:49:14.397Z,17.20
2022-09-03T16:51:55.852Z,17.10
2022-09-03T16:54:40.997Z,17.10
2022-09-03T16:57:34.049Z,17.00
2022-09-03T17:00:10.455Z,17.00
2022-09-03T17:03:05.237Z,16.90
2022-09-03T17:05:50.108Z,16.90
2022-09-03T17:08:44.476Z,16.80
2022-09-03T17:11:35.102Z,16.80
2022-09-03T17:14:42.105Z,16.60
2022-09-03T17:17:25.985Z,16.60
2022-09-03T17:20:13.176Z,16.50
2022-09-03T17:22:45.100Z,16.50
2022-09-03T17:25:36.921Z,16.50
2022-09-03T17:28:09.410Z,16.40
2022-09-03T17:31:05.163Z,16.40
2022-09-03T17:33:40.114Z,16.40
2022-09-03T17:36:18.689Z,16.40
2022-09-03T17:39:10.180Z,16.30
2022-09-03T17:41:47.178Z,16.20
2022-09-03T17:44:34.219Z,16.20
2022-09-03T17:47:38.411Z,16.20
2022-09-03T17:50:18.432Z,16.10
2022-09-03T17:52:49.662Z,16.00
2022-09-03T17:55:31.103Z,16.00
2022-09-03T17:58:01.560Z,16.00
2022-09-03T18:00:45.829Z,16.00
2022-09-03T18:03:30.232Z,16.00
2022-09-03T18:06:01.492Z,16.00
2022-09-03T18:08:50.111Z,15.90
2022-09-03T18:11:28.160Z,15.90
2022-09-03T18:14:10.943Z,15.80
2022-09-03T18:16:49.974Z,15.80
2022-09-03T18:20:00.477Z,15.80
2022-09-03T18:23:09.095Z,15.80
2022-09-03T18:25:58.073Z,15.70
2022-09-03T18:28:56.429Z,15.70
2022-09-03T18:31:41.822Z,15.70
2022-09-03T18:34:27.714Z,15.60
2022-09-03T18:37:17.032Z,15.70
2022-09-03T18:40:05.914Z,15.60
2022-09-03T18:43:13.280Z,15.50
2022-09-03T18:49:52.090Z,15.50
2022-09-03T18:52:49.805Z,15.50
2022-09-03T18:56:03.963Z,15.50
2022-09-03T18:59:12.298Z,15.40
2022-09-03T19:02:00.204Z,15.30
2022-09-03T19:05:07.433Z,15.30
2022-09-03T19:08:11.290Z,15.20
2022-09-03T19:11:07.118Z,15.20
2022-09-03T19:13:55.428Z,15.10
2022-09-03T19:16:44.290Z,15.10
2022-09-03T19:19:55.018Z,15.10
2022-09-03T19:22:56.175Z,15.10
2022-09-03T19:25:43.145Z,15.10
2022-09-03T19:28:47.525Z,15.10
2022-09-03T19:32:09.232Z,15.10
2022-09-03T19:35:14.485Z,15.10
2022-09-03T19:38:19.846Z,15.10
2022-09-03T19:41:24.056Z,15.10
2022-09-03T19:44:12.653Z,15.10
2022-09-03T19:47:10.480Z,15.10
2022-09-03T19:50:30.984Z,15.00
2022-09-03T19:53:22.363Z,15.00
2022-09-03T19:56:15.699Z,14.90
2022-09-03T19:59:07.680Z,14.90
2022-09-03T20:01:55.080Z,14.80
2022-09-03T20:05:07.323Z,14.80
2022-09-03T20:07:54.041Z,14.70
2022-09-03T20:10:24.644Z,14.60
2022-09-03T20:13:13.954Z,14.60
2022-09-03T20:15:49.713Z,14.60
2022-09-03T20:18:43.507Z,14.60
2022-09-03T20:21:18.095Z,14.50
2022-09-03T20:23:44.905Z,14.50
2022-09-03T20:26:17.451Z,14.30
2022-09-03T20:29:03.786Z,14.30
2022-09-03T20:31:43.939Z,14.30
2022-09-03T20:34:33.949Z,14.20
2022-09-03T20:37:12.689Z,14.20
2022-09-03T20:39:42.386Z,14.20
2022-09-03T20:42:20.541Z,14.20
2022-09-03T20:45:03.545Z,14.20
2022-09-03T20:47:49.220Z,14.20
2022-09-03T20:50:34.628Z,14.10
2022-09-03T20:53:19.411Z,14.10
2022-09-03T20:55:50.676Z,14.10
2022-09-03T20:59:01.735Z,14.10
2022-09-03T21:01:54.619Z,14.10
2022-09-03T21:04:48.837Z,14.00
2022-09-03T21:07:43.178Z,14.00
2022-09-03T21:10:34.905Z,14.00
2022-09-03T21:13:16.009Z,14.00
2022-09-03T21:16:14.096Z,13.90
2022-09-03T21:18:58.663Z,13.70
2022-09-03T21:21:38.416Z,13.80
2022-09-03T21:24:15.239Z,13.90
2022-09-03T21:26:46.217Z,13.90
2022-09-03T21:29:39.675Z,13.90
2022-09-03T21:32:11.394Z,14.00
2022-09-03T21:34:49.645Z,14.00
2022-09-03T21:37:18.549Z,14.00
2022-09-03T21:39:54.590Z,13.90
2022-09-03T21:42:43.437Z,14.00
2022-09-03T21:45:17.584Z,14.00
2022-09-03T21:47:51.244Z,14.00
2022-09-03T21:50:19.571Z,13.90
2022-09-03T21:53:03.551Z,13.80
2022-09-03T21:55:43.956Z,13.80
2022-09-03T21:59:01.031Z,13.80
2022-09-03T22:01:45.540Z,13.80
2022-09-03T22:04:12.430Z,13.70
2022-09-03T22:06:57.653Z,13.80
2022-09-03T22:09:43.736Z,13.80
2022-09-03T22:12:22.543Z,13.70
2022-09-03T22:14:53.276Z,13.70
2022-09-03T22:17:30.402Z,13.70
2022-09-03T22:19:57.315Z,13.60
2022-09-03T22:23:05.942Z,13.50
2022-09-03T22:25:58.892Z,13.50
2022-09-03T22:28:36.119Z,13.50
2022-09-03T22:31:31.203Z,13.40
2022-09-03T22:34:22.002Z,13.30
2022-09-03T22:36:54.483Z,13.30
2022-09-03T22:39:45.922Z,13.30
2022-09-03T22:42:30.669Z,13.20
2022-09-03T22:45:03.412Z,13.20
2022-09-03T22:48:07.534Z,13.10
2022-09-03T22:50:44.461Z,13.20
2022-09-03T22:53:39.142Z,13.20
2022-09-03T22:56:10.795Z,13.20
2022-09-03T22:58:56.310Z,13.10
2022-09-03T23:01:44.567Z,13.10
2022-09-03T23:04:40.760Z,13.10
2022-09-03T23:07:36.882Z,13.10
2022-09-03T23:10:14.572Z,13.00
2022-09-03T23:13:08.187Z,13.00
2022-09-03T23:15:39.399Z,12.90
2022-09-03T23:18:19.834Z,12.90
2022-09-03T23:21:04.022Z,12.90
2022-09-03T23:23:50.504Z,12.80
2022-09-03T23:26:37.525Z,12.80
2022-09-03T23:29:27.617Z,12.80
2022-09-03T23:31:58.991Z,12.80
2022-09-03T23:34:27.029Z,12.80
2022-09-03T23:37:35.392Z,12.70
2022-09-03T23:40:41.836Z,12.70
2022-09-03T23:43:41.140Z,12.80
2022-09-03T23:46:49.430Z,12.70
2022-09-03T23:50:00.657Z,12.80
2022-09-03T23:52:59.724Z,12.80
2022-09-03T23:55:30.109Z,12.80
2022-09-03T23:58:10.540Z,12.80
